Terminal Aerodrome Forecast
Issued by NWS Milwaukee/Sullivan, WI

Home | Current Version | Previous Version | Text Only | Print | Product List | Glossary On
Versions: 1 2 3 4 5 6 7 8 9 10 11 12 13 14 15 16 17 18 19 20 21 22 23 24 25 26 27 28 29 30 31 32 33 34 35 36 37 38 39 40 41 42
000
FTUS43 KMKX 192101 AAA
TAFMKE
TAF AMD
KMKE 192101Z 1921/2024 12008KT P6SM FEW180 BKN250
     FM201000 11004KT 3SM BR BKN100
     FM201100 12004KT 1/2SM FG BKN008
     FM201200 12005KT 3/4SM BR BKN008
     FM201600 15009KT 1 1/2SM BR BKN008
     FM202200 15011KT 2SM BR OVC025
     FM202300 16010KT 1 1/2SM BR OVC035=

USA.gov is the U.S. government's official web portal to all federal, state and local government web resources and services.